KLXV

Lake County Airport

Leadville, Colorado, USA
METAR KLXV 231053Z AUTO 05003KT 10SM SCT029 BKN035 OVC050 M15/M17 A3013 RMK AO2 SLP223 T11501172
Observed Flight Rules
Jan-23 @ 10:53 UTC (an hour ago) Visual Flight Rules
Wind Visibility Clouds
50° at 3 knots 10 miles
  • Scattered at 2,900' AGL
  • Broken at 3,500' AGL
  • Overcast at 5,000' AGL
Temperatures Readings
Current -15°C / 5°F
Dewpoint -17°C / 1°F
Humidity 85%
Altimeter 30.13" Hg
Pressure 1022.3 hPa
Elevation 3028
METAR KLXV 231053Z AUTO 05003KT 10SM SCT029 BKN035 OVC050 M15/M17 A3013 RMK AO2 SLP223 T11501172
Observed Flight Rules
Jan-23 @ 10:53 UTC
(an hour ago)
VFR
Wind Visibility
50° at 3 knots 10 miles
Clouds
  • Scattered at 2,900' AGL
  • Broken at 3,500' AGL
  • Overcast at 5,000' AGL
Temperature Dewpoint
-15°C / 5°F -17°C / 1°F
Humidity Altimeter Pressure
85% 30.13" Hg 1022.3 hPa